sensor_id;sensor_type;location;lat;lon;timestamp;pressure;altitude;pressure_sealevel;temperature;humidity
39491;BME280;25175;50.140;18.990;2022-09-01T00:01:56;98882.09;;;14.27;65.03
39491;BME280;25175;50.140;18.990;2022-09-01T00:04:59;98875.00;;;14.28;64.63
39491;BME280;25175;50.140;18.990;2022-09-01T00:08:05;98871.34;;;14.29;64.36
39491;BME280;25175;50.140;18.990;2022-09-01T00:11:08;98874.38;;;14.26;64.47
39491;BME280;25175;50.140;18.990;2022-09-01T00:14:10;98861.88;;;14.21;64.50
39491;BME280;25175;50.140;18.990;2022-09-01T00:17:13;98871.00;;;14.19;64.63
39491;BME280;25175;50.140;18.990;2022-09-01T00:20:15;98866.97;;;14.16;64.83
39491;BME280;25175;50.140;18.990;2022-09-01T00:23:19;98863.16;;;14.12;64.62
39491;BME280;25175;50.140;18.990;2022-09-01T00:26:21;98861.75;;;14.10;64.65
39491;BME280;25175;50.140;18.990;2022-09-01T00:29:24;98866.63;;;14.06;64.81
39491;BME280;25175;50.140;18.990;2022-09-01T00:32:27;98866.72;;;14.00;65.25
39491;BME280;25175;50.140;18.990;2022-09-01T00:35:29;98864.28;;;13.98;64.82
39491;BME280;25175;50.140;18.990;2022-09-01T00:38:33;98864.09;;;13.93;64.99
39491;BME280;25175;50.140;18.990;2022-09-01T00:41:37;98854.78;;;13.91;65.14
39491;BME280;25175;50.140;18.990;2022-09-01T00:44:44;98863.25;;;13.93;65.37
39491;BME280;25175;50.140;18.990;2022-09-01T00:47:46;98858.81;;;13.93;65.56
39491;BME280;25175;50.140;18.990;2022-09-01T00:50:48;98853.91;;;13.97;65.23
39491;BME280;25175;50.140;18.990;2022-09-01T00:53:52;98844.00;;;13.99;65.29
39491;BME280;25175;50.140;18.990;2022-09-01T00:56:57;98850.03;;;14.06;65.12
39491;BME280;25175;50.140;18.990;2022-09-01T01:00:05;98850.41;;;14.09;65.15
39491;BME280;25175;50.140;18.990;2022-09-01T01:03:08;98842.88;;;14.13;64.85
39491;BME280;25175;50.140;18.990;2022-09-01T01:06:14;98851.63;;;14.13;64.79
39491;BME280;25175;50.140;18.990;2022-09-01T01:09:19;98856.72;;;14.08;64.34
39491;BME280;25175;50.140;18.990;2022-09-01T01:12:22;98851.28;;;14.03;64.34
39491;BME280;25175;50.140;18.990;2022-09-01T01:15:30;98849.66;;;14.02;64.63
39491;BME280;25175;50.140;18.990;2022-09-01T01:18:32;98854.13;;;14.02;64.37
39491;BME280;25175;50.140;18.990;2022-09-01T01:21:40;98839.94;;;13.96;64.40
39491;BME280;25175;50.140;18.990;2022-09-01T01:25:11;98852.97;;;13.91;64.38
39491;BME280;25175;50.140;18.990;2022-09-01T01:28:16;98841.81;;;13.89;64.51
39491;BME280;25175;50.140;18.990;2022-09-01T01:31:23;98854.34;;;13.94;64.90
39491;BME280;25175;50.140;18.990;2022-09-01T01:34:25;98844.03;;;13.92;64.49
39491;BME280;25175;50.140;18.990;2022-09-01T01:37:28;98847.69;;;13.91;64.40
39491;BME280;25175;50.140;18.990;2022-09-01T01:40:32;98842.44;;;13.91;64.46
39491;BME280;25175;50.140;18.990;2022-09-01T01:43:34;98847.09;;;13.89;64.36
39491;BME280;25175;50.140;18.990;2022-09-01T01:46:40;98851.16;;;13.85;64.31
39491;BME280;25175;50.140;18.990;2022-09-01T01:49:43;98855.03;;;13.83;64.25
39491;BME280;25175;50.140;18.990;2022-09-01T01:52:45;98860.16;;;13.78;64.34
39491;BME280;25175;50.140;18.990;2022-09-01T01:55:51;98857.94;;;13.75;64.67
39491;BME280;25175;50.140;18.990;2022-09-01T01:58:54;98856.31;;;13.74;64.86
39491;BME280;25175;50.140;18.990;2022-09-01T02:01:58;98854.31;;;13.69;64.21
39491;BME280;25175;50.140;18.990;2022-09-01T02:05:04;98862.66;;;13.60;64.24
39491;BME280;25175;50.140;18.990;2022-09-01T02:08:08;98858.44;;;13.59;64.49
39491;BME280;25175;50.140;18.990;2022-09-01T02:11:12;98856.00;;;13.57;64.71
39491;BME280;25175;50.140;18.990;2022-09-01T02:14:17;98854.38;;;13.56;64.55
39491;BME280;25175;50.140;18.990;2022-09-01T02:17:21;98853.19;;;13.52;64.56
39491;BME280;25175;50.140;18.990;2022-09-01T02:20:23;98851.84;;;13.43;64.54
39491;BME280;25175;50.140;18.990;2022-09-01T02:23:29;98854.69;;;13.35;65.19
39491;BME280;25175;50.140;18.990;2022-09-01T02:26:36;98854.75;;;13.29;65.35
39491;BME280;25175;50.140;18.990;2022-09-01T02:29:39;98852.53;;;13.26;65.28
39491;BME280;25175;50.140;18.990;2022-09-01T02:32:41;98850.72;;;13.20;65.50
39491;BME280;25175;50.140;18.990;2022-09-01T02:35:44;98847.28;;;13.19;65.81
39491;BME280;25175;50.140;18.990;2022-09-01T02:38:47;98850.72;;;13.20;65.56
39491;BME280;25175;50.140;18.990;2022-09-01T02:41:53;98853.94;;;13.22;65.87
39491;BME280;25175;50.140;18.990;2022-09-01T02:44:59;98855.16;;;13.26;65.30
39491;BME280;25175;50.140;18.990;2022-09-01T02:48:02;98851.13;;;13.23;65.33
39491;BME280;25175;50.140;18.990;2022-09-01T02:51:09;98848.09;;;13.20;65.44
39491;BME280;25175;50.140;18.990;2022-09-01T02:54:13;98843.84;;;13.19;65.73
39491;BME280;25175;50.140;18.990;2022-09-01T02:57:18;98850.16;;;13.18;65.86
39491;BME280;25175;50.140;18.990;2022-09-01T03:00:24;98851.38;;;13.15;65.49
39491;BME280;25175;50.140;18.990;2022-09-01T03:03:33;98849.13;;;13.12;65.82
39491;BME280;25175;50.140;18.990;2022-09-01T03:06:37;98852.59;;;13.13;66.31
39491;BME280;25175;50.140;18.990;2022-09-01T03:09:39;98849.75;;;13.14;65.97
39491;BME280;25175;50.140;18.990;2022-09-01T03:12:44;98847.91;;;13.15;66.13
39491;BME280;25175;50.140;18.990;2022-09-01T03:15:46;98846.50;;;13.12;66.05
39491;BME280;25175;50.140;18.990;2022-09-01T03:18:50;98844.91;;;13.11;66.42
39491;BME280;25175;50.140;18.990;2022-09-01T03:21:53;98854.59;;;13.11;66.06
39491;BME280;25175;50.140;18.990;2022-09-01T03:25:03;98850.16;;;13.11;66.48
39491;BME280;25175;50.140;18.990;2022-09-01T03:28:07;98848.75;;;13.15;66.57
39491;BME280;25175;50.140;18.990;2022-09-01T03:31:13;98848.13;;;13.13;66.22
39491;BME280;25175;50.140;18.990;2022-09-01T03:34:16;98852.59;;;13.13;66.49
39491;BME280;25175;50.140;18.990;2022-09-01T03:37:24;98848.16;;;13.07;66.66
39491;BME280;25175;50.140;18.990;2022-09-01T03:40:30;98853.03;;;13.03;66.90
39491;BME280;25175;50.140;18.990;2022-09-01T03:43:34;98851.78;;;13.06;66.72
39491;BME280;25175;50.140;18.990;2022-09-01T03:46:37;98849.97;;;13.06;66.88
39491;BME280;25175;50.140;18.990;2022-09-01T03:49:40;98850.41;;;13.03;67.07
39491;BME280;25175;50.140;18.990;2022-09-01T03:52:43;98863.13;;;13.06;66.82
39491;BME280;25175;50.140;18.990;2022-09-01T03:55:46;98844.50;;;13.08;66.80
39491;BME280;25175;50.140;18.990;2022-09-01T03:58:51;98869.59;;;13.10;66.66
39491;BME280;25175;50.140;18.990;2022-09-01T04:01:55;98861.09;;;13.08;66.54
39491;BME280;25175;50.140;18.990;2022-09-01T04:04:58;98874.66;;;13.05;67.25
39491;BME280;25175;50.140;18.990;2022-09-01T04:08:03;98866.97;;;13.04;67.30
39491;BME280;25175;50.140;18.990;2022-09-01T04:11:11;98861.53;;;12.99;67.38
39491;BME280;25175;50.140;18.990;2022-09-01T04:14:18;98871.03;;;12.93;67.57
39491;BME280;25175;50.140;18.990;2022-09-01T04:17:22;98866.38;;;12.89;67.70
39491;BME280;25175;50.140;18.990;2022-09-01T04:20:42;98862.13;;;12.88;68.02
39491;BME280;25175;50.140;18.990;2022-09-01T04:23:50;98876.69;;;12.90;67.70
39491;BME280;25175;50.140;18.990;2022-09-01T04:26:53;98867.00;;;12.91;68.23
39491;BME280;25175;50.140;18.990;2022-09-01T04:29:57;98877.53;;;12.91;68.21
39491;BME280;25175;50.140;18.990;2022-09-01T04:33:03;98873.06;;;12.91;68.34
39491;BME280;25175;50.140;18.990;2022-09-01T04:36:16;98869.63;;;12.91;68.31
39491;BME280;25175;50.140;18.990;2022-09-01T04:39:21;98876.50;;;12.92;68.34
39491;BME280;25175;50.140;18.990;2022-09-01T04:42:26;98878.09;;;12.93;68.02
39491;BME280;25175;50.140;18.990;2022-09-01T04:45:31;98878.94;;;12.93;68.39
39491;BME280;25175;50.140;18.990;2022-09-01T04:48:34;98883.38;;;12.99;68.16
39491;BME280;25175;50.140;18.990;2022-09-01T04:51:38;98882.16;;;13.02;68.42
39491;BME280;25175;50.140;18.990;2022-09-01T04:54:41;98877.88;;;13.07;68.06
39491;BME280;25175;50.140;18.990;2022-09-01T04:57:47;98878.28;;;13.11;68.46
39491;BME280;25175;50.140;18.990;2022-09-01T05:00:51;98881.09;;;13.16;68.38
39491;BME280;25175;50.140;18.990;2022-09-01T05:03:55;98884.13;;;13.19;68.16
39491;BME280;25175;50.140;18.990;2022-09-01T05:07:11;98875.63;;;13.24;68.16
39491;BME280;25175;50.140;18.990;2022-09-01T05:10:14;98874.16;;;13.28;68.28
39491;BME280;25175;50.140;18.990;2022-09-01T05:13:38;98882.47;;;13.31;68.10
39491;BME280;25175;50.140;18.990;2022-09-01T05:16:42;98878.63;;;13.34;68.01
39491;BME280;25175;50.140;18.990;2022-09-01T05:19:47;98883.25;;;13.32;68.22
39491;BME280;25175;50.140;18.990;2022-09-01T05:22:50;98874.97;;;13.35;68.38
39491;BME280;25175;50.140;18.990;2022-09-01T05:25:54;98874.31;;;13.39;68.04
39491;BME280;25175;50.140;18.990;2022-09-01T05:28:59;98875.16;;;13.40;67.67
39491;BME280;25175;50.140;18.990;2022-09-01T05:32:04;98878.16;;;13.43;67.70
39491;BME280;25175;50.140;18.990;2022-09-01T05:35:10;98875.91;;;13.47;67.44
39491;BME280;25175;50.140;18.990;2022-09-01T05:38:13;98877.72;;;13.46;67.17
39491;BME280;25175;50.140;18.990;2022-09-01T05:41:17;98880.16;;;13.48;67.20
39491;BME280;25175;50.140;18.990;2022-09-01T05:44:21;98872.84;;;13.50;67.48
39491;BME280;25175;50.140;18.990;2022-09-01T05:47:26;98879.31;;;13.54;67.40
39491;BME280;25175;50.140;18.990;2022-09-01T05:50:29;98874.88;;;13.54;67.15
39491;BME280;25175;50.140;18.990;2022-09-01T05:53:31;98873.03;;;13.55;67.59
39491;BME280;25175;50.140;18.990;2022-09-01T05:56:34;98883.34;;;13.56;67.13
39491;BME280;25175;50.140;18.990;2022-09-01T05:59:39;98875.25;;;13.58;67.26
39491;BME280;25175;50.140;18.990;2022-09-01T06:02:50;98874.00;;;13.60;66.83
39491;BME280;25175;50.140;18.990;2022-09-01T06:06:00;98884.09;;;13.63;67.15
39491;BME280;25175;50.140;18.990;2022-09-01T06:09:04;98883.69;;;13.66;66.59
39491;BME280;25175;50.140;18.990;2022-09-01T06:12:07;98881.44;;;13.70;66.67
39491;BME280;25175;50.140;18.990;2022-09-01T06:15:17;98883.03;;;13.77;66.72
39491;BME280;25175;50.140;18.990;2022-09-01T06:18:25;98879.75;;;13.82;66.08
39491;BME280;25175;50.140;18.990;2022-09-01T06:21:32;98891.28;;;13.87;66.46
39491;BME280;25175;50.140;18.990;2022-09-01T06:24:34;98886.97;;;13.93;66.31
39491;BME280;25175;50.140;18.990;2022-09-01T06:27:37;98898.31;;;14.00;66.45
39491;BME280;25175;50.140;18.990;2022-09-01T06:30:42;98887.72;;;14.06;66.29
39491;BME280;25175;50.140;18.990;2022-09-01T06:33:47;98880.59;;;14.13;65.57
39491;BME280;25175;50.140;18.990;2022-09-01T06:36:50;98887.41;;;14.21;65.27
39491;BME280;25175;50.140;18.990;2022-09-01T06:39:55;98891.59;;;14.28;65.38
39491;BME280;25175;50.140;18.990;2022-09-01T06:42:58;98898.66;;;14.34;64.45
39491;BME280;25175;50.140;18.990;2022-09-01T06:46:02;98901.03;;;14.42;64.68
39491;BME280;25175;50.140;18.990;2022-09-01T06:49:07;98901.56;;;14.51;64.54
39491;BME280;25175;50.140;18.990;2022-09-01T06:52:12;98900.13;;;14.55;64.10
39491;BME280;25175;50.140;18.990;2022-09-01T06:55:16;98905.31;;;14.61;64.16
39491;BME280;25175;50.140;18.990;2022-09-01T06:58:19;98904.03;;;14.70;63.81
39491;BME280;25175;50.140;18.990;2022-09-01T07:01:25;98904.53;;;14.79;63.56
39491;BME280;25175;50.140;18.990;2022-09-01T07:04:30;98912.16;;;14.87;63.31
39491;BME280;25175;50.140;18.990;2022-09-01T07:07:37;98910.31;;;14.94;62.48
39491;BME280;25175;50.140;18.990;2022-09-01T07:11:02;98915.34;;;14.95;61.93
39491;BME280;25175;50.140;18.990;2022-09-01T07:14:07;98912.13;;;14.93;61.97
39491;BME280;25175;50.140;18.990;2022-09-01T07:17:09;98911.72;;;14.96;61.90
39491;BME280;25175;50.140;18.990;2022-09-01T07:20:21;98920.72;;;15.07;62.33
39491;BME280;25175;50.140;18.990;2022-09-01T07:23:24;98916.09;;;15.20;62.69
39491;BME280;25175;50.140;18.990;2022-09-01T07:26:30;98914.91;;;15.34;62.02
39491;BME280;25175;50.140;18.990;2022-09-01T07:29:34;98911.31;;;15.47;61.23
39491;BME280;25175;50.140;18.990;2022-09-01T07:32:36;98914.22;;;15.57;61.12
39491;BME280;25175;50.140;18.990;2022-09-01T07:35:45;98906.00;;;15.65;60.50
39491;BME280;25175;50.140;18.990;2022-09-01T07:38:48;98922.13;;;15.74;60.58
39491;BME280;25175;50.140;18.990;2022-09-01T07:41:54;98916.34;;;15.84;60.38
39491;BME280;25175;50.140;18.990;2022-09-01T07:45:33;98912.47;;;15.98;60.08
39491;BME280;25175;50.140;18.990;2022-09-01T07:48:39;98916.50;;;16.01;59.59
39491;BME280;25175;50.140;18.990;2022-09-01T07:51:44;98907.09;;;16.05;59.44
39491;BME280;25175;50.140;18.990;2022-09-01T07:54:51;98909.06;;;16.09;58.49
39491;BME280;25175;50.140;18.990;2022-09-01T07:57:53;98911.38;;;16.17;59.64
39491;BME280;25175;50.140;18.990;2022-09-01T08:00:58;98912.56;;;16.33;58.56
39491;BME280;25175;50.140;18.990;2022-09-01T08:04:03;98911.88;;;16.48;58.10
39491;BME280;25175;50.140;18.990;2022-09-01T08:07:08;98912.81;;;16.65;56.97
39491;BME280;25175;50.140;18.990;2022-09-01T08:10:11;98911.69;;;16.73;55.66
39491;BME280;25175;50.140;18.990;2022-09-01T08:13:15;98907.31;;;16.78;55.38
39491;BME280;25175;50.140;18.990;2022-09-01T08:16:18;98907.44;;;16.83;54.77
39491;BME280;25175;50.140;18.990;2022-09-01T08:19:23;98910.31;;;16.93;55.74
39491;BME280;25175;50.140;18.990;2022-09-01T08:22:43;98914.41;;;17.12;54.99
39491;BME280;25175;50.140;18.990;2022-09-01T08:25:56;98912.19;;;17.32;55.02
39491;BME280;25175;50.140;18.990;2022-09-01T08:28:59;98914.47;;;17.40;52.24
39491;BME280;25175;50.140;18.990;2022-09-01T08:32:07;98922.66;;;17.39;50.31
39491;BME280;25175;50.140;18.990;2022-09-01T08:35:12;98913.69;;;17.28;50.19
39491;BME280;25175;50.140;18.990;2022-09-01T08:38:18;98918.63;;;17.36;51.98
39491;BME280;25175;50.140;18.990;2022-09-01T08:41:29;98918.41;;;17.49;52.33
39491;BME280;25175;50.140;18.990;2022-09-01T08:44:40;98915.91;;;17.71;51.19
39491;BME280;25175;50.140;18.990;2022-09-01T08:47:46;98923.94;;;17.76;49.46
39491;BME280;25175;50.140;18.990;2022-09-01T08:50:54;98916.47;;;17.73;49.30
39491;BME280;25175;50.140;18.990;2022-09-01T08:54:19;98915.28;;;17.80;50.49
39491;BME280;25175;50.140;18.990;2022-09-01T08:57:25;98915.38;;;17.85;49.78
39491;BME280;25175;50.140;18.990;2022-09-01T09:01:10;98919.53;;;18.09;50.98
39491;BME280;25175;50.140;18.990;2022-09-01T09:04:30;98912.97;;;18.28;50.05
39491;BME280;25175;50.140;18.990;2022-09-01T09:07:48;98906.72;;;18.34;48.59
39491;BME280;25175;50.140;18.990;2022-09-01T09:11:00;98891.50;;;18.30;48.32
39491;BME280;25175;50.140;18.990;2022-09-01T09:14:10;98919.19;;;18.22;47.04
39491;BME280;25175;50.140;18.990;2022-09-01T09:17:17;98915.81;;;18.10;47.39
39491;BME280;25175;50.140;18.990;2022-09-01T09:20:21;98919.69;;;18.19;48.84
39491;BME280;25175;50.140;18.990;2022-09-01T09:23:26;98908.16;;;18.42;46.91
39491;BME280;25175;50.140;18.990;2022-09-01T09:26:31;98912.25;;;18.66;48.37
39491;BME280;25175;50.140;18.990;2022-09-01T09:29:34;98908.34;;;18.90;48.87
39491;BME280;25175;50.140;18.990;2022-09-01T09:32:45;98907.16;;;19.19;47.85
39491;BME280;25175;50.140;18.990;2022-09-01T09:35:48;98915.03;;;19.09;45.49
39491;BME280;25175;50.140;18.990;2022-09-01T09:39:03;98905.22;;;18.76;46.00
39491;BME280;25175;50.140;18.990;2022-09-01T09:42:10;98918.78;;;18.58;46.19
39491;BME280;25175;50.140;18.990;2022-09-01T09:45:22;98910.00;;;18.41;46.93
39491;BME280;25175;50.140;18.990;2022-09-01T09:48:28;98909.13;;;18.52;47.75
39491;BME280;25175;50.140;18.990;2022-09-01T09:51:30;98909.09;;;18.69;46.50
39491;BME280;25175;50.140;18.990;2022-09-01T09:54:33;98904.91;;;18.89;48.10
39491;BME280;25175;50.140;18.990;2022-09-01T09:57:39;98904.84;;;19.22;46.54
39491;BME280;25175;50.140;18.990;2022-09-01T10:01:00;98892.53;;;19.38;43.69
39491;BME280;25175;50.140;18.990;2022-09-01T10:04:04;98893.91;;;19.40;45.44
39491;BME280;25175;50.140;18.990;2022-09-01T10:07:23;98897.88;;;19.64;45.07
39491;BME280;25175;50.140;18.990;2022-09-01T10:10:30;98884.78;;;19.79;43.74
39491;BME280;25175;50.140;18.990;2022-09-01T10:13:38;98902.97;;;19.66;43.24
39491;BME280;25175;50.140;18.990;2022-09-01T10:16:41;98895.25;;;19.43;42.28
39491;BME280;25175;50.140;18.990;2022-09-01T10:19:48;98899.28;;;19.45;43.83
39491;BME280;25175;50.140;18.990;2022-09-01T10:22:55;98903.78;;;19.66;43.63
39491;BME280;25175;50.140;18.990;2022-09-01T10:26:01;98896.50;;;19.78;43.09
39491;BME280;25175;50.140;18.990;2022-09-01T10:29:09;98902.91;;;19.61;43.05
39491;BME280;25175;50.140;18.990;2022-09-01T10:32:17;98902.88;;;19.34;43.23
39491;BME280;25175;50.140;18.990;2022-09-01T10:35:24;98893.16;;;19.23;43.66
39491;BME280;25175;50.140;18.990;2022-09-01T10:38:28;98897.38;;;19.19;43.51
39491;BME280;25175;50.140;18.990;2022-09-01T10:41:52;98892.66;;;19.26;44.84
39491;BME280;25175;50.140;18.990;2022-09-01T10:44:58;98892.97;;;19.51;44.76
39491;BME280;25175;50.140;18.990;2022-09-01T10:48:23;98879.94;;;19.76;43.42
39491;BME280;25175;50.140;18.990;2022-09-01T10:51:44;98876.00;;;19.79;40.98
39491;BME280;25175;50.140;18.990;2022-09-01T10:54:56;98882.19;;;19.84;41.65
39491;BME280;25175;50.140;18.990;2022-09-01T10:58:21;98885.06;;;20.09;42.05
39491;BME280;25175;50.140;18.990;2022-09-01T11:02:07;98874.06;;;20.27;40.88
39491;BME280;25175;50.140;18.990;2022-09-01T11:05:14;98885.06;;;20.09;39.45
39491;BME280;25175;50.140;18.990;2022-09-01T11:08:40;98884.59;;;19.86;40.03
39491;BME280;25175;50.140;18.990;2022-09-01T11:11:46;98886.00;;;19.72;40.52
39491;BME280;25175;50.140;18.990;2022-09-01T11:14:52;98878.41;;;19.80;42.33
39491;BME280;25175;50.140;18.990;2022-09-01T11:17:57;98878.47;;;19.85;40.85
39491;BME280;25175;50.140;18.990;2022-09-01T11:21:13;98878.66;;;19.79;40.96
39491;BME280;25175;50.140;18.990;2022-09-01T11:28:36;98885.94;;;19.67;41.00
39491;BME280;25175;50.140;18.990;2022-09-01T11:31:41;98880.41;;;19.68;41.19
39491;BME280;25175;50.140;18.990;2022-09-01T11:34:47;98880.41;;;19.68;41.82
39491;BME280;25175;50.140;18.990;2022-09-01T11:37:51;98863.00;;;19.82;41.74
39491;BME280;25175;50.140;18.990;2022-09-01T11:40:56;98871.69;;;19.99;41.62
39491;BME280;25175;50.140;18.990;2022-09-01T11:44:01;98873.88;;;20.07;40.04
39491;BME280;25175;50.140;18.990;2022-09-01T11:47:10;98877.59;;;20.06;40.46
39491;BME280;25175;50.140;18.990;2022-09-01T11:50:20;98860.66;;;20.17;41.00
39491;BME280;25175;50.140;18.990;2022-09-01T11:53:23;98864.72;;;20.25;40.86
39491;BME280;25175;50.140;18.990;2022-09-01T11:56:26;98869.78;;;20.26;40.43
39491;BME280;25175;50.140;18.990;2022-09-01T11:59:30;98869.91;;;20.10;40.53
39491;BME280;25175;50.140;18.990;2022-09-01T12:02:35;98869.66;;;19.85;40.75
39491;BME280;25175;50.140;18.990;2022-09-01T12:05:39;98866.34;;;19.73;41.43
39491;BME280;25175;50.140;18.990;2022-09-01T12:08:50;98860.66;;;19.64;41.46
39491;BME280;25175;50.140;18.990;2022-09-01T12:11:53;98860.06;;;19.57;41.65
39491;BME280;25175;50.140;18.990;2022-09-01T12:14:56;98867.44;;;19.50;41.91
39491;BME280;25175;50.140;18.990;2022-09-01T12:18:11;98864.50;;;19.52;42.54
39491;BME280;25175;50.140;18.990;2022-09-01T12:21:20;98855.88;;;19.61;41.99
39491;BME280;25175;50.140;18.990;2022-09-01T12:24:23;98844.00;;;19.74;42.32
39491;BME280;25175;50.140;18.990;2022-09-01T12:27:25;98849.50;;;19.89;40.89
39491;BME280;25175;50.140;18.990;2022-09-01T12:30:28;98850.72;;;20.03;41.46
39491;BME280;25175;50.140;18.990;2022-09-01T12:33:35;98851.28;;;20.10;40.12
39491;BME280;25175;50.140;18.990;2022-09-01T12:36:38;98851.50;;;20.03;39.07
39491;BME280;25175;50.140;18.990;2022-09-01T12:39:41;98847.75;;;19.99;39.18
39491;BME280;25175;50.140;18.990;2022-09-01T12:42:49;98860.19;;;19.94;39.84
39491;BME280;25175;50.140;18.990;2022-09-01T12:45:52;98847.44;;;19.96;40.12
39491;BME280;25175;50.140;18.990;2022-09-01T12:49:15;98849.59;;;19.99;39.61
39491;BME280;25175;50.140;18.990;2022-09-01T12:52:22;98843.03;;;20.06;39.26
39491;BME280;25175;50.140;18.990;2022-09-01T12:55:27;98839.38;;;20.17;39.42
39491;BME280;25175;50.140;18.990;2022-09-01T12:58:30;98842.41;;;20.31;39.27
39491;BME280;25175;50.140;18.990;2022-09-01T13:01:34;98830.97;;;20.30;38.09
39491;BME280;25175;50.140;18.990;2022-09-01T13:04:36;98834.19;;;20.32;38.58
39491;BME280;25175;50.140;18.990;2022-09-01T13:07:40;98844.84;;;20.32;38.07
39491;BME280;25175;50.140;18.990;2022-09-01T13:10:44;98840.03;;;20.34;38.42
39491;BME280;25175;50.140;18.990;2022-09-01T13:13:47;98847.25;;;20.39;38.03
39491;BME280;25175;50.140;18.990;2022-09-01T13:16:50;98849.16;;;20.43;38.25
39491;BME280;25175;50.140;18.990;2022-09-01T13:19:52;98846.47;;;20.38;37.74
39491;BME280;25175;50.140;18.990;2022-09-01T13:22:56;98845.91;;;20.36;37.66
39491;BME280;25175;50.140;18.990;2022-09-01T13:25:59;98852.53;;;20.34;38.33
39491;BME280;25175;50.140;18.990;2022-09-01T13:29:02;98844.56;;;20.34;38.18
39491;BME280;25175;50.140;18.990;2022-09-01T13:32:05;98850.16;;;20.32;37.90
39491;BME280;25175;50.140;18.990;2022-09-01T13:35:09;98851.72;;;20.28;37.85
39491;BME280;25175;50.140;18.990;2022-09-01T13:38:13;98847.75;;;20.31;38.63
39491;BME280;25175;50.140;18.990;2022-09-01T13:41:16;98841.59;;;20.30;37.94
39491;BME280;25175;50.140;18.990;2022-09-01T13:44:19;98843.16;;;20.26;38.54
39491;BME280;25175;50.140;18.990;2022-09-01T13:47:23;98846.88;;;20.25;39.21
39491;BME280;25175;50.140;18.990;2022-09-01T13:50:25;98844.19;;;20.20;39.11
39491;BME280;25175;50.140;18.990;2022-09-01T13:53:29;98848.34;;;20.06;38.79
39491;BME280;25175;50.140;18.990;2022-09-01T13:56:31;98849.59;;;19.99;38.93
39491;BME280;25175;50.140;18.990;2022-09-01T13:59:35;98839.69;;;19.89;39.16
39491;BME280;25175;50.140;18.990;2022-09-01T14:02:38;98845.97;;;19.78;38.99
39491;BME280;25175;50.140;18.990;2022-09-01T14:05:41;98846.38;;;19.70;38.22
39491;BME280;25175;50.140;18.990;2022-09-01T14:08:46;98850.56;;;19.61;38.25
39491;BME280;25175;50.140;18.990;2022-09-01T14:11:51;98844.44;;;19.61;37.95
39491;BME280;25175;50.140;18.990;2022-09-01T14:14:53;98848.69;;;19.62;37.80
39491;BME280;25175;50.140;18.990;2022-09-01T14:17:56;98847.38;;;19.64;37.97
39491;BME280;25175;50.140;18.990;2022-09-01T14:21:00;98829.88;;;19.68;38.05
39491;BME280;25175;50.140;18.990;2022-09-01T14:24:04;98837.19;;;19.78;38.21
39491;BME280;25175;50.140;18.990;2022-09-01T14:27:06;98833.59;;;19.94;38.35
39491;BME280;25175;50.140;18.990;2022-09-01T14:30:11;98842.44;;;19.99;37.81
39491;BME280;25175;50.140;18.990;2022-09-01T14:33:15;98842.97;;;20.01;37.32
39491;BME280;25175;50.140;18.990;2022-09-01T14:36:19;98839.84;;;20.09;37.98
39491;BME280;25175;50.140;18.990;2022-09-01T14:39:23;98832.47;;;20.16;36.41
39491;BME280;25175;50.140;18.990;2022-09-01T14:42:26;98830.84;;;20.15;36.21
39491;BME280;25175;50.140;18.990;2022-09-01T14:45:29;98831.16;;;20.19;36.24
39491;BME280;25175;50.140;18.990;2022-09-01T14:48:32;98833.00;;;20.18;35.35
39491;BME280;25175;50.140;18.990;2022-09-01T14:51:35;98839.31;;;20.07;35.59
39491;BME280;25175;50.140;18.990;2022-09-01T14:54:40;98845.63;;;20.01;36.31
39491;BME280;25175;50.140;18.990;2022-09-01T14:57:43;98836.50;;;19.92;35.84
39491;BME280;25175;50.140;18.990;2022-09-01T15:00:45;98841.34;;;19.74;36.18
39491;BME280;25175;50.140;18.990;2022-09-01T15:03:48;98839.34;;;19.59;36.68
39491;BME280;25175;50.140;18.990;2022-09-01T15:06:50;98839.06;;;19.56;36.81
39491;BME280;25175;50.140;18.990;2022-09-01T15:09:53;98839.34;;;19.59;37.37
39491;BME280;25175;50.140;18.990;2022-09-01T15:12:59;98835.91;;;19.59;36.54
39491;BME280;25175;50.140;18.990;2022-09-01T15:16:02;98840.72;;;19.62;36.56
39491;BME280;25175;50.140;18.990;2022-09-01T15:19:05;98841.00;;;19.65;36.72
39491;BME280;25175;50.140;18.990;2022-09-01T15:22:08;98833.03;;;19.65;35.84
39491;BME280;25175;50.140;18.990;2022-09-01T15:25:15;98839.91;;;19.61;35.68
39491;BME280;25175;50.140;18.990;2022-09-01T15:28:19;98840.88;;;19.50;36.46
39491;BME280;25175;50.140;18.990;2022-09-01T15:31:24;98836.97;;;19.36;36.87
39491;BME280;25175;50.140;18.990;2022-09-01T15:34:29;98836.56;;;19.23;37.04
39491;BME280;25175;50.140;18.990;2022-09-01T15:37:31;98843.06;;;19.10;37.61
39491;BME280;25175;50.140;18.990;2022-09-01T15:40:39;98840.44;;;18.94;38.22
39491;BME280;25175;50.140;18.990;2022-09-01T15:43:41;98842.47;;;18.87;38.26
39491;BME280;25175;50.140;18.990;2022-09-01T15:46:43;98844.78;;;18.83;38.80
39491;BME280;25175;50.140;18.990;2022-09-01T15:49:45;98846.91;;;18.81;39.30
39491;BME280;25175;50.140;18.990;2022-09-01T15:52:50;98843.63;;;18.74;38.91
39491;BME280;25175;50.140;18.990;2022-09-01T15:55:54;98848.63;;;18.71;39.03
39491;BME280;25175;50.140;18.990;2022-09-01T15:58:58;98833.19;;;18.68;39.43
39491;BME280;25175;50.140;18.990;2022-09-01T16:02:00;98846.84;;;18.76;39.22
39491;BME280;25175;50.140;18.990;2022-09-01T16:05:03;98846.03;;;18.76;39.32
39491;BME280;25175;50.140;18.990;2022-09-01T16:08:07;98846.34;;;18.79;39.79
39491;BME280;25175;50.140;18.990;2022-09-01T16:11:12;98848.78;;;18.81;39.20
39491;BME280;25175;50.140;18.990;2022-09-01T16:14:14;98845.84;;;18.82;39.15
39491;BME280;25175;50.140;18.990;2022-09-01T16:17:22;98848.03;;;18.85;39.77